sensor_id;sensor_type;location;lat;lon;timestamp;pressure;altitude;pressure_sealevel;temperature;humidity
68226;BME280;55045;49.410;11.030;2023-05-21T00:01:44;97756.06;;;17.33;100.00
68226;BME280;55045;49.410;11.030;2023-05-21T00:04:50;97743.00;;;17.21;100.00
68226;BME280;55045;49.410;11.030;2023-05-21T00:07:54;97750.38;;;17.27;100.00
68226;BME280;55045;49.410;11.030;2023-05-21T00:10:58;97744.34;;;17.05;100.00
68226;BME280;55045;49.410;11.030;2023-05-21T00:14:11;97746.69;;;17.19;100.00
68226;BME280;55045;49.410;11.030;2023-05-21T00:17:15;97739.44;;;17.43;100.00
68226;BME280;55045;49.410;11.030;2023-05-21T00:20:18;97735.72;;;17.25;100.00
68226;BME280;55045;49.410;11.030;2023-05-21T00:23:24;97737.88;;;16.65;100.00
68226;BME280;55045;49.410;11.030;2023-05-21T00:26:28;97742.19;;;17.10;100.00
68226;BME280;55045;49.410;11.030;2023-05-21T00:29:31;97730.75;;;17.11;100.00
68226;BME280;55045;49.410;11.030;2023-05-21T00:32:34;97729.31;;;17.18;100.00
68226;BME280;55045;49.410;11.030;2023-05-21T00:35:38;97726.25;;;17.02;100.00
68226;BME280;55045;49.410;11.030;2023-05-21T00:38:43;97728.19;;;17.32;100.00
68226;BME280;55045;49.410;11.030;2023-05-21T00:41:47;97720.81;;;17.25;100.00
68226;BME280;55045;49.410;11.030;2023-05-21T00:44:52;97725.00;;;17.28;100.00
68226;BME280;55045;49.410;11.030;2023-05-21T00:47:56;97720.56;;;16.96;100.00
68226;BME280;55045;49.410;11.030;2023-05-21T00:50:59;97722.38;;;16.85;100.00
68226;BME280;55045;49.410;11.030;2023-05-21T00:54:04;97720.41;;;17.09;100.00
68226;BME280;55045;49.410;11.030;2023-05-21T00:57:09;97727.63;;;16.74;100.00
68226;BME280;55045;49.410;11.030;2023-05-21T01:00:13;97725.19;;;17.04;100.00
68226;BME280;55045;49.410;11.030;2023-05-21T01:03:17;97719.59;;;17.09;100.00
68226;BME280;55045;49.410;11.030;2023-05-21T01:06:21;97673.72;;;16.71;100.00
68226;BME280;55045;49.410;11.030;2023-05-21T01:09:26;97719.72;;;16.96;100.00
68226;BME280;55045;49.410;11.030;2023-05-21T01:12:30;97720.38;;;16.66;100.00
68226;BME280;55045;49.410;11.030;2023-05-21T01:15:34;97714.81;;;16.26;100.00
68226;BME280;55045;49.410;11.030;2023-05-21T01:18:39;97729.59;;;15.80;100.00
68226;BME280;55045;49.410;11.030;2023-05-21T01:21:49;97723.88;;;15.64;100.00
68226;BME280;55045;49.410;11.030;2023-05-21T01:24:55;97721.28;;;15.51;100.00
68226;BME280;55045;49.410;11.030;2023-05-21T01:27:59;97718.31;;;15.45;100.00
68226;BME280;55045;49.410;11.030;2023-05-21T01:31:15;97723.94;;;15.27;100.00
68226;BME280;55045;49.410;11.030;2023-05-21T01:34:25;97716.38;;;15.12;100.00
68226;BME280;55045;49.410;11.030;2023-05-21T01:37:34;97717.69;;;15.06;100.00
68226;BME280;55045;49.410;11.030;2023-05-21T01:40:44;97715.56;;;14.87;100.00
68226;BME280;55045;49.410;11.030;2023-05-21T01:43:50;97704.00;;;14.79;100.00
68226;BME280;55045;49.410;11.030;2023-05-21T01:46:55;97718.28;;;14.86;100.00
68226;BME280;55045;49.410;11.030;2023-05-21T01:49:59;97720.84;;;14.98;100.00
68226;BME280;55045;49.410;11.030;2023-05-21T01:53:03;97715.13;;;14.93;100.00
68226;BME280;55045;49.410;11.030;2023-05-21T01:56:08;97723.56;;;14.97;100.00
68226;BME280;55045;49.410;11.030;2023-05-21T01:59:12;97704.00;;;14.79;100.00
68226;BME280;55045;49.410;11.030;2023-05-21T02:02:15;97712.41;;;14.95;100.00
68226;BME280;55045;49.410;11.030;2023-05-21T02:05:21;97715.03;;;14.95;100.00
68226;BME280;55045;49.410;11.030;2023-05-21T02:08:25;97718.16;;;14.87;100.00
68226;BME280;55045;49.410;11.030;2023-05-21T02:11:30;97720.31;;;14.69;100.00
68226;BME280;55045;49.410;11.030;2023-05-21T02:14:33;97716.56;;;14.74;100.00
68226;BME280;55045;49.410;11.030;2023-05-21T02:17:37;97710.34;;;14.51;100.00
68226;BME280;55045;49.410;11.030;2023-05-21T02:20:44;97717.03;;;14.55;100.00
68226;BME280;55045;49.410;11.030;2023-05-21T02:23:48;97718.28;;;14.49;100.00
68226;BME280;55045;49.410;11.030;2023-05-21T02:26:52;97719.75;;;14.53;100.00
68226;BME280;55045;49.410;11.030;2023-05-21T02:29:56;97727.56;;;14.53;100.00
68226;BME280;55045;49.410;11.030;2023-05-21T02:32:59;97722.66;;;14.36;100.00
68226;BME280;55045;49.410;11.030;2023-05-21T02:36:04;97723.00;;;14.31;100.00
68226;BME280;55045;49.410;11.030;2023-05-21T02:39:13;97714.84;;;14.36;100.00
68226;BME280;55045;49.410;11.030;2023-05-21T02:42:18;97718.41;;;14.22;100.00
68226;BME280;55045;49.410;11.030;2023-05-21T02:45:22;97716.19;;;14.29;100.00
68226;BME280;55045;49.410;11.030;2023-05-21T02:48:26;97717.88;;;14.17;100.00
68226;BME280;55045;49.410;11.030;2023-05-21T02:51:29;97720.38;;;14.19;100.00
68226;BME280;55045;49.410;11.030;2023-05-21T02:54:33;97719.56;;;14.05;100.00
68226;BME280;55045;49.410;11.030;2023-05-21T02:57:37;97719.88;;;14.13;100.00
68226;BME280;55045;49.410;11.030;2023-05-21T03:00:41;97712.06;;;14.13;100.00
68226;BME280;55045;49.410;11.030;2023-05-21T03:03:44;97729.88;;;14.20;100.00
68226;BME280;55045;49.410;11.030;2023-05-21T03:06:48;97721.84;;;14.23;100.00
68226;BME280;55045;49.410;11.030;2023-05-21T03:09:52;97720.19;;;14.22;100.00
68226;BME280;55045;49.410;11.030;2023-05-21T03:12:58;97724.84;;;14.42;100.00
68226;BME280;55045;49.410;11.030;2023-05-21T03:16:02;97726.22;;;14.35;100.00
68226;BME280;55045;49.410;11.030;2023-05-21T03:19:06;97724.56;;;14.34;100.00
68226;BME280;55045;49.410;11.030;2023-05-21T03:22:09;97715.50;;;14.76;100.00
68226;BME280;55045;49.410;11.030;2023-05-21T03:25:13;97724.84;;;14.42;100.00
68226;BME280;55045;49.410;11.030;2023-05-21T03:28:19;97712.22;;;14.85;100.00
68226;BME280;55045;49.410;11.030;2023-05-21T03:34:32;97726.00;;;14.38;100.00
68226;BME280;55045;49.410;11.030;2023-05-21T03:37:37;97719.53;;;14.44;100.00
68226;BME280;55045;49.410;11.030;2023-05-21T03:40:40;97720.81;;;14.25;100.00
68226;BME280;55045;49.410;11.030;2023-05-21T03:43:44;97727.66;;;14.39;100.00
68226;BME280;55045;49.410;11.030;2023-05-21T03:46:47;97718.81;;;14.41;100.00
68226;BME280;55045;49.410;11.030;2023-05-21T03:50:11;97721.91;;;14.59;100.00
68226;BME280;55045;49.410;11.030;2023-05-21T03:53:14;97723.94;;;14.18;100.00
68226;BME280;55045;49.410;11.030;2023-05-21T03:56:18;97731.84;;;14.41;100.00
68226;BME280;55045;49.410;11.030;2023-05-21T03:59:22;97732.69;;;14.29;100.00
68226;BME280;55045;49.410;11.030;2023-05-21T04:02:26;97731.03;;;14.41;100.00
68226;BME280;55045;49.410;11.030;2023-05-21T04:05:31;97724.66;;;14.20;100.00
68226;BME280;55045;49.410;11.030;2023-05-21T04:08:34;97729.56;;;14.37;100.00
68226;BME280;55045;49.410;11.030;2023-05-21T04:11:38;97732.81;;;14.15;100.00
68226;BME280;55045;49.410;11.030;2023-05-21T04:14:42;97732.28;;;14.23;100.00
68226;BME280;55045;49.410;11.030;2023-05-21T04:17:45;97732.72;;;14.04;100.00
68226;BME280;55045;49.410;11.030;2023-05-21T04:20:50;97738.56;;;14.20;100.00
68226;BME280;55045;49.410;11.030;2023-05-21T04:23:53;97739.66;;;14.29;100.00
68226;BME280;55045;49.410;11.030;2023-05-21T04:27:10;97738.34;;;14.10;100.00
68226;BME280;55045;49.410;11.030;2023-05-21T04:30:15;97748.25;;;14.18;100.00
68226;BME280;55045;49.410;11.030;2023-05-21T04:33:21;97741.88;;;14.09;100.00
68226;BME280;55045;49.410;11.030;2023-05-21T04:36:27;97753.25;;;14.34;100.00
68226;BME280;55045;49.410;11.030;2023-05-21T04:39:31;97751.38;;;14.36;100.00
68226;BME280;55045;49.410;11.030;2023-05-21T04:42:35;97753.78;;;14.52;100.00
68226;BME280;55045;49.410;11.030;2023-05-21T04:45:40;97749.91;;;14.57;100.00
68226;BME280;55045;49.410;11.030;2023-05-21T04:48:44;97746.31;;;14.71;100.00
68226;BME280;55045;49.410;11.030;2023-05-21T04:51:49;97744.69;;;14.94;100.00
68226;BME280;55045;49.410;11.030;2023-05-21T04:54:52;97743.84;;;14.93;100.00
68226;BME280;55045;49.410;11.030;2023-05-21T04:57:55;97749.03;;;15.06;100.00
68226;BME280;55045;49.410;11.030;2023-05-21T05:00:59;97734.13;;;15.19;100.00
68226;BME280;55045;49.410;11.030;2023-05-21T05:04:05;97746.69;;;15.14;100.00
68226;BME280;55045;49.410;11.030;2023-05-21T05:07:09;97745.69;;;15.28;100.00
68226;BME280;55045;49.410;11.030;2023-05-21T05:10:13;97750.31;;;15.24;100.00
68226;BME280;55045;49.410;11.030;2023-05-21T05:13:16;97749.00;;;15.30;100.00
68226;BME280;55045;49.410;11.030;2023-05-21T05:16:19;97751.66;;;15.41;100.00
68226;BME280;55045;49.410;11.030;2023-05-21T05:19:26;97751.09;;;15.49;100.00
68226;BME280;55045;49.410;11.030;2023-05-21T05:22:32;97754.50;;;15.62;100.00
68226;BME280;55045;49.410;11.030;2023-05-21T05:25:36;97752.00;;;15.61;100.00
68226;BME280;55045;49.410;11.030;2023-05-21T05:28:40;97751.09;;;15.73;100.00
68226;BME280;55045;49.410;11.030;2023-05-21T05:31:43;97755.97;;;15.66;100.00
68226;BME280;55045;49.410;11.030;2023-05-21T05:34:47;97749.94;;;15.88;100.00
68226;BME280;55045;49.410;11.030;2023-05-21T05:37:52;97751.09;;;15.73;100.00
68226;BME280;55045;49.410;11.030;2023-05-21T05:40:56;97747.00;;;16.04;100.00
68226;BME280;55045;49.410;11.030;2023-05-21T05:43:59;97744.75;;;15.99;100.00
68226;BME280;55045;49.410;11.030;2023-05-21T05:47:06;97743.22;;;16.08;100.00
68226;BME280;55045;49.410;11.030;2023-05-21T05:50:13;97741.69;;;16.17;100.00
68226;BME280;55045;49.410;11.030;2023-05-21T05:53:17;97743.09;;;16.21;100.00
68226;BME280;55045;49.410;11.030;2023-05-21T05:56:21;97741.31;;;16.43;100.00
68226;BME280;55045;49.410;11.030;2023-05-21T05:59:24;97738.22;;;16.61;100.00
68226;BME280;55045;49.410;11.030;2023-05-21T06:02:36;97730.84;;;16.77;100.00
68226;BME280;55045;49.410;11.030;2023-05-21T06:05:39;97742.25;;;16.87;100.00
68226;BME280;55045;49.410;11.030;2023-05-21T06:08:44;97740.09;;;16.92;100.00
68226;BME280;55045;49.410;11.030;2023-05-21T06:11:51;97737.44;;;17.04;100.00
68226;BME280;55045;49.410;11.030;2023-05-21T06:14:54;97732.34;;;17.34;100.00
68226;BME280;55045;49.410;11.030;2023-05-21T06:17:58;97730.97;;;17.51;100.00
68226;BME280;55045;49.410;11.030;2023-05-21T06:21:01;97735.19;;;17.63;100.00
68226;BME280;55045;49.410;11.030;2023-05-21T06:24:06;97725.38;;;17.44;100.00
68226;BME280;55045;49.410;11.030;2023-05-21T06:27:09;97734.41;;;17.51;100.00
68226;BME280;55045;49.410;11.030;2023-05-21T06:30:14;97729.38;;;17.60;100.00
68226;BME280;55045;49.410;11.030;2023-05-21T06:33:17;97726.59;;;17.72;100.00
68226;BME280;55045;49.410;11.030;2023-05-21T06:36:23;97730.59;;;17.76;100.00
68226;BME280;55045;49.410;11.030;2023-05-21T06:39:29;97722.09;;;17.84;100.00
68226;BME280;55045;49.410;11.030;2023-05-21T06:42:33;97726.66;;;17.82;100.00
68226;BME280;55045;49.410;11.030;2023-05-21T06:45:56;97726.00;;;18.10;100.00
68226;BME280;55045;49.410;11.030;2023-05-21T06:49:12;97723.94;;;18.14;100.00
68226;BME280;55045;49.410;11.030;2023-05-21T06:52:17;97724.41;;;18.29;100.00
68226;BME280;55045;49.410;11.030;2023-05-21T06:55:22;97730.94;;;18.34;100.00
68226;BME280;55045;49.410;11.030;2023-05-21T06:58:49;97724.38;;;18.50;100.00
68226;BME280;55045;49.410;11.030;2023-05-21T07:01:52;97724.53;;;18.58;100.00
68226;BME280;55045;49.410;11.030;2023-05-21T07:04:56;97721.56;;;18.72;100.00
68226;BME280;55045;49.410;11.030;2023-05-21T07:07:59;97723.38;;;18.72;100.00
68226;BME280;55045;49.410;11.030;2023-05-21T07:11:05;97719.22;;;18.79;100.00
68226;BME280;55045;49.410;11.030;2023-05-21T07:14:10;97710.38;;;18.89;100.00
68226;BME280;55045;49.410;11.030;2023-05-21T07:17:14;97719.00;;;19.01;100.00
68226;BME280;55045;49.410;11.030;2023-05-21T07:20:18;97723.56;;;19.18;100.00
68226;BME280;55045;49.410;11.030;2023-05-21T07:23:24;97715.44;;;19.21;100.00
68226;BME280;55045;49.410;11.030;2023-05-21T07:26:28;97716.25;;;19.32;100.00
68226;BME280;55045;49.410;11.030;2023-05-21T07:29:32;97721.25;;;19.44;100.00
68226;BME280;55045;49.410;11.030;2023-05-21T07:32:36;97722.63;;;19.58;100.00
68226;BME280;55045;49.410;11.030;2023-05-21T07:35:39;97714.19;;;19.64;100.00
68226;BME280;55045;49.410;11.030;2023-05-21T07:38:43;97720.13;;;19.66;100.00
68226;BME280;55045;49.410;11.030;2023-05-21T07:41:48;97718.72;;;19.81;100.00
68226;BME280;55045;49.410;11.030;2023-05-21T07:44:52;97721.16;;;20.02;100.00
68226;BME280;55045;49.410;11.030;2023-05-21T07:47:57;97716.53;;;19.77;100.00
68226;BME280;55045;49.410;11.030;2023-05-21T07:51:02;97707.47;;;19.99;100.00
68226;BME280;55045;49.410;11.030;2023-05-21T07:54:06;97708.44;;;19.98;100.00
68226;BME280;55045;49.410;11.030;2023-05-21T07:57:11;97712.69;;;20.18;100.00
68226;BME280;55045;49.410;11.030;2023-05-21T08:00:25;97716.78;;;20.30;100.00
68226;BME280;55045;49.410;11.030;2023-05-21T08:03:31;97712.19;;;20.32;100.00
68226;BME280;55045;49.410;11.030;2023-05-21T08:06:34;97708.47;;;20.45;100.00
68226;BME280;55045;49.410;11.030;2023-05-21T08:09:38;97707.38;;;20.65;100.00
68226;BME280;55045;49.410;11.030;2023-05-21T08:12:45;97716.94;;;20.66;99.01
68226;BME280;55045;49.410;11.030;2023-05-21T08:15:51;97708.25;;;21.01;98.81
68226;BME280;55045;49.410;11.030;2023-05-21T08:18:56;97704.28;;;21.15;98.18
68226;BME280;55045;49.410;11.030;2023-05-21T08:21:59;97705.22;;;21.41;100.00
68226;BME280;55045;49.410;11.030;2023-05-21T08:25:06;97709.03;;;21.11;97.22
68226;BME280;55045;49.410;11.030;2023-05-21T08:28:11;97706.47;;;21.55;95.13
68226;BME280;55045;49.410;11.030;2023-05-21T08:31:16;97715.03;;;21.31;95.42
68226;BME280;55045;49.410;11.030;2023-05-21T08:34:22;97710.88;;;21.28;95.31
68226;BME280;55045;49.410;11.030;2023-05-21T08:37:35;97703.94;;;21.27;94.27
68226;BME280;55045;49.410;11.030;2023-05-21T08:40:50;97710.22;;;21.26;94.99
68226;BME280;55045;49.410;11.030;2023-05-21T08:44:00;97708.84;;;21.40;95.24
68226;BME280;55045;49.410;11.030;2023-05-21T08:47:06;97670.84;;;21.15;94.69
68226;BME280;55045;49.410;11.030;2023-05-21T08:50:13;97696.41;;;21.33;94.19
68226;BME280;55045;49.410;11.030;2023-05-21T08:53:16;97700.75;;;21.60;93.34
68226;BME280;55045;49.410;11.030;2023-05-21T08:56:30;97697.16;;;21.87;92.99
68226;BME280;55045;49.410;11.030;2023-05-21T08:59:35;97718.53;;;22.27;90.03
68226;BME280;55045;49.410;11.030;2023-05-21T09:02:45;97698.81;;;22.48;88.88
68226;BME280;55045;49.410;11.030;2023-05-21T09:05:52;97705.94;;;22.13;88.18
68226;BME280;55045;49.410;11.030;2023-05-21T09:09:01;97701.84;;;22.19;91.13
68226;BME280;55045;49.410;11.030;2023-05-21T09:12:14;97704.59;;;22.43;91.46
68226;BME280;55045;49.410;11.030;2023-05-21T09:15:20;97704.16;;;22.22;89.70
68226;BME280;55045;49.410;11.030;2023-05-21T09:18:23;97701.75;;;21.84;91.06
68226;BME280;55045;49.410;11.030;2023-05-21T09:21:38;97701.03;;;22.00;92.47
68226;BME280;55045;49.410;11.030;2023-05-21T09:24:50;97698.56;;;21.99;90.15
68226;BME280;55045;49.410;11.030;2023-05-21T09:27:54;97709.59;;;22.20;91.18
68226;BME280;55045;49.410;11.030;2023-05-21T09:34:34;97705.91;;;22.39;90.44
68226;BME280;55045;49.410;11.030;2023-05-21T09:37:38;97709.16;;;22.33;91.36
68226;BME280;55045;49.410;11.030;2023-05-21T09:40:44;97689.34;;;22.29;90.89
68226;BME280;55045;49.410;11.030;2023-05-21T09:43:49;97708.69;;;22.37;89.80
68226;BME280;55045;49.410;11.030;2023-05-21T09:46:56;97714.41;;;22.25;90.19
68226;BME280;55045;49.410;11.030;2023-05-21T09:50:01;97713.84;;;22.47;91.60
68226;BME280;55045;49.410;11.030;2023-05-21T09:53:10;97709.84;;;22.35;89.26
68226;BME280;55045;49.410;11.030;2023-05-21T09:56:14;97701.38;;;22.65;88.28
68226;BME280;55045;49.410;11.030;2023-05-21T09:59:19;97703.16;;;22.57;88.37
68226;BME280;55045;49.410;11.030;2023-05-21T10:02:23;97671.84;;;22.28;89.47
68226;BME280;55045;49.410;11.030;2023-05-21T10:05:29;97709.53;;;22.38;90.25
68226;BME280;55045;49.410;11.030;2023-05-21T10:08:34;97711.19;;;22.39;90.98
68226;BME280;55045;49.410;11.030;2023-05-21T10:11:38;97707.91;;;22.11;89.75
68226;BME280;55045;49.410;11.030;2023-05-21T10:14:50;97698.84;;;22.13;90.58
68226;BME280;55045;49.410;11.030;2023-05-21T10:17:54;97699.28;;;22.35;91.67
68226;BME280;55045;49.410;11.030;2023-05-21T10:20:59;97703.09;;;22.40;91.64
68226;BME280;55045;49.410;11.030;2023-05-21T10:24:04;97699.81;;;22.38;91.54
68226;BME280;55045;49.410;11.030;2023-05-21T10:27:09;97697.03;;;22.48;91.68
68226;BME280;55045;49.410;11.030;2023-05-21T10:30:13;97685.88;;;22.28;90.08
68226;BME280;55045;49.410;11.030;2023-05-21T10:33:17;97686.75;;;22.45;89.70
68226;BME280;55045;49.410;11.030;2023-05-21T10:36:25;97689.19;;;22.73;94.37
68226;BME280;55045;49.410;11.030;2023-05-21T10:39:32;97684.47;;;22.84;90.23
68226;BME280;55045;49.410;11.030;2023-05-21T10:42:57;97691.06;;;22.88;88.18
68226;BME280;55045;49.410;11.030;2023-05-21T10:46:15;97679.16;;;22.84;86.25
68226;BME280;55045;49.410;11.030;2023-05-21T10:49:40;97674.09;;;23.07;80.55
68226;BME280;55045;49.410;11.030;2023-05-21T10:52:58;97680.22;;;23.16;80.08
68226;BME280;55045;49.410;11.030;2023-05-21T10:56:12;97672.78;;;23.19;78.69
68226;BME280;55045;49.410;11.030;2023-05-21T10:59:31;97663.84;;;23.04;83.29
68226;BME280;55045;49.410;11.030;2023-05-21T11:02:38;97665.53;;;23.21;81.82
68226;BME280;55045;49.410;11.030;2023-05-21T11:05:50;97678.56;;;23.55;76.87
68226;BME280;55045;49.410;11.030;2023-05-21T11:08:55;97635.41;;;23.06;80.95
68226;BME280;55045;49.410;11.030;2023-05-21T11:11:59;97646.81;;;23.55;77.15
68226;BME280;55045;49.410;11.030;2023-05-21T11:15:05;97658.75;;;23.43;80.54
68226;BME280;55045;49.410;11.030;2023-05-21T11:18:08;97662.19;;;23.84;79.87
68226;BME280;55045;49.410;11.030;2023-05-21T11:21:14;97664.84;;;23.36;83.74
68226;BME280;55045;49.410;11.030;2023-05-21T11:24:19;97655.38;;;23.90;77.08
68226;BME280;55045;49.410;11.030;2023-05-21T11:27:30;97660.72;;;23.74;69.33
68226;BME280;55045;49.410;11.030;2023-05-21T11:30:35;97619.13;;;23.91;71.67
68226;BME280;55045;49.410;11.030;2023-05-21T11:33:41;97652.31;;;24.26;66.29
68226;BME280;55045;49.410;11.030;2023-05-21T11:36:45;97647.22;;;24.08;71.08
68226;BME280;55045;49.410;11.030;2023-05-21T11:39:51;97660.09;;;24.35;64.11
68226;BME280;55045;49.410;11.030;2023-05-21T11:42:55;97650.84;;;24.23;68.56
68226;BME280;55045;49.410;11.030;2023-05-21T11:45:59;97649.19;;;24.22;65.11
68226;BME280;55045;49.410;11.030;2023-05-21T11:49:02;97638.19;;;24.41;60.70
68226;BME280;55045;49.410;11.030;2023-05-21T11:52:07;97633.84;;;24.49;59.34
68226;BME280;55045;49.410;11.030;2023-05-21T11:55:12;97638.94;;;24.89;61.25
68226;BME280;55045;49.410;11.030;2023-05-21T11:58:17;97638.22;;;25.04;62.05
68226;BME280;55045;49.410;11.030;2023-05-21T12:01:21;97639.94;;;24.88;59.06
68226;BME280;55045;49.410;11.030;2023-05-21T12:04:28;97632.84;;;24.81;61.07
68226;BME280;55045;49.410;11.030;2023-05-21T12:07:31;97635.25;;;25.21;57.91
68226;BME280;55045;49.410;11.030;2023-05-21T12:10:37;97626.03;;;24.86;62.14
68226;BME280;55045;49.410;11.030;2023-05-21T12:13:41;97632.91;;;25.04;61.17
68226;BME280;55045;49.410;11.030;2023-05-21T12:16:45;97638.16;;;24.81;59.16
68226;BME280;55045;49.410;11.030;2023-05-21T12:19:50;97628.31;;;24.66;62.25
68226;BME280;55045;49.410;11.030;2023-05-21T12:22:53;97621.22;;;24.59;59.76
68226;BME280;55045;49.410;11.030;2023-05-21T12:25:58;97623.59;;;24.46;65.66
68226;BME280;55045;49.410;11.030;2023-05-21T12:29:10;97615.94;;;24.51;67.18
68226;BME280;55045;49.410;11.030;2023-05-21T12:32:15;97621.00;;;24.37;69.07
68226;BME280;55045;49.410;11.030;2023-05-21T12:35:22;97621.97;;;24.45;66.49
68226;BME280;55045;49.410;11.030;2023-05-21T12:38:29;97629.78;;;24.69;66.35
68226;BME280;55045;49.410;11.030;2023-05-21T12:41:34;97635.56;;;24.73;63.38
68226;BME280;55045;49.410;11.030;2023-05-21T12:44:37;97640.91;;;24.95;64.17
68226;BME280;55045;49.410;11.030;2023-05-21T12:47:46;97626.72;;;24.80;60.58
68226;BME280;55045;49.410;11.030;2023-05-21T12:50:50;97634.28;;;24.91;59.00
68226;BME280;55045;49.410;11.030;2023-05-21T12:53:53;97635.56;;;25.04;51.78
68226;BME280;55045;49.410;11.030;2023-05-21T12:57:04;97646.69;;;25.22;52.74
68226;BME280;55045;49.410;11.030;2023-05-21T13:00:08;97637.22;;;25.05;55.37
68226;BME280;55045;49.410;11.030;2023-05-21T13:03:12;97643.03;;;25.23;52.37
68226;BME280;55045;49.410;11.030;2023-05-21T13:06:15;97642.97;;;25.31;49.70
68226;BME280;55045;49.410;11.030;2023-05-21T13:09:18;97635.25;;;25.59;52.29
68226;BME280;55045;49.410;11.030;2023-05-21T13:12:26;97640.91;;;25.41;53.43
68226;BME280;55045;49.410;11.030;2023-05-21T13:15:30;97636.28;;;25.58;50.43
68226;BME280;55045;49.410;11.030;2023-05-21T13:18:33;97634.56;;;25.65;50.85
68226;BME280;55045;49.410;11.030;2023-05-21T13:21:37;97626.34;;;25.90;49.16
68226;BME280;55045;49.410;11.030;2023-05-21T13:24:40;97627.19;;;25.90;55.18
68226;BME280;55045;49.410;11.030;2023-05-21T13:27:46;97628.47;;;25.94;51.64
68226;BME280;55045;49.410;11.030;2023-05-21T13:30:49;97627.81;;;25.92;51.16
68226;BME280;55045;49.410;11.030;2023-05-21T13:33:54;97618.56;;;26.18;52.43
68226;BME280;55045;49.410;11.030;2023-05-21T13:36:57;97623.25;;;26.01;50.17
68226;BME280;55045;49.410;11.030;2023-05-21T13:40:01;97615.09;;;25.88;49.40
68226;BME280;55045;49.410;11.030;2023-05-21T13:43:06;97620.19;;;25.74;48.44
68226;BME280;55045;49.410;11.030;2023-05-21T13:46:09;97619.66;;;25.79;48.86
68226;BME280;55045;49.410;11.030;2023-05-21T13:49:12;97622.84;;;25.74;47.67
68226;BME280;55045;49.410;11.030;2023-05-21T13:52:16;97624.75;;;25.28;47.42
68226;BME280;55045;49.410;11.030;2023-05-21T13:55:20;97605.50;;;25.49;47.89
68226;BME280;55045;49.410;11.030;2023-05-21T13:58:25;97634.50;;;25.50;45.82
68226;BME280;55045;49.410;11.030;2023-05-21T14:01:28;97617.47;;;25.82;42.21
68226;BME280;55045;49.410;11.030;2023-05-21T14:04:32;97608.50;;;25.98;45.29
68226;BME280;55045;49.410;11.030;2023-05-21T14:07:37;97605.38;;;25.80;45.64
68226;BME280;55045;49.410;11.030;2023-05-21T14:10:41;97620.31;;;25.96;41.34
68226;BME280;55045;49.410;11.030;2023-05-21T14:13:46;97625.81;;;25.94;36.81
68226;BME280;55045;49.410;11.030;2023-05-21T14:16:50;97613.84;;;25.61;41.68
68226;BME280;55045;49.410;11.030;2023-05-21T14:19:53;97612.81;;;25.62;43.27
68226;BME280;55045;49.410;11.030;2023-05-21T14:22:57;97617.28;;;25.84;39.20
68226;BME280;55045;49.410;11.030;2023-05-21T14:26:00;97612.34;;;25.81;39.26
68226;BME280;55045;49.410;11.030;2023-05-21T14:29:12;97615.47;;;25.62;40.34
68226;BME280;55045;49.410;11.030;2023-05-21T14:32:15;97598.34;;;25.64;45.45
68226;BME280;55045;49.410;11.030;2023-05-21T14:35:19;97608.41;;;25.39;44.17
68226;BME280;55045;49.410;11.030;2023-05-21T14:38:22;97609.47;;;25.68;44.53
68226;BME280;55045;49.410;11.030;2023-05-21T14:41:26;97615.09;;;25.88;48.24
68226;BME280;55045;49.410;11.030;2023-05-21T14:44:31;97618.28;;;26.12;44.07
68226;BME280;55045;49.410;11.030;2023-05-21T14:47:34;97612.34;;;25.96;45.87
68226;BME280;55045;49.410;11.030;2023-05-21T14:50:38;97611.81;;;25.63;48.82
68226;BME280;55045;49.410;11.030;2023-05-21T14:53:41;97606.81;;;25.68;48.93
68226;BME280;55045;49.410;11.030;2023-05-21T14:56:44;97611.88;;;25.92;45.78
68226;BME280;55045;49.410;11.030;2023-05-21T14:59:49;97609.16;;;25.63;50.83
68226;BME280;55045;49.410;11.030;2023-05-21T15:02:53;97607.31;;;26.01;48.89
68226;BME280;55045;49.410;11.030;2023-05-21T15:05:58;97612.63;;;25.86;51.56
68226;BME280;55045;49.410;11.030;2023-05-21T15:09:01;97612.19;;;25.60;53.81
68226;BME280;55045;49.410;11.030;2023-05-21T15:12:05;97555.88;;;25.64;50.72
68226;BME280;55045;49.410;11.030;2023-05-21T15:15:10;97606.22;;;25.95;45.63
68226;BME280;55045;49.410;11.030;2023-05-21T15:18:14;97611.78;;;26.00;42.43
68226;BME280;55045;49.410;11.030;2023-05-21T15:21:18;97612.50;;;25.65;45.00
68226;BME280;55045;49.410;11.030;2023-05-21T15:24:22;97601.31;;;25.54;46.38
68226;BME280;55045;49.410;11.030;2023-05-21T15:27:25;97610.81;;;25.49;46.00
68226;BME280;55045;49.410;11.030;2023-05-21T15:34:32;97599.97;;;25.36;46.47
68226;BME280;55045;49.410;11.030;2023-05-21T15:37:36;97595.44;;;25.44;48.11
68226;BME280;55045;49.410;11.030;2023-05-21T15:40:39;97587.88;;;25.33;50.48
68226;BME280;55045;49.410;11.030;2023-05-21T15:43:44;97589.09;;;25.45;49.01
68226;BME280;55045;49.410;11.030;2023-05-21T15:46:48;97590.44;;;25.41;49.44
68226;BME280;55045;49.410;11.030;2023-05-21T15:49:54;97585.41;;;25.32;50.83
68226;BME280;55045;49.410;11.030;2023-05-21T15:52:57;97584.44;;;25.10;52.27
68226;BME280;55045;49.410;11.030;2023-05-21T15:56:00;97586.31;;;25.24;54.43
68226;BME280;55045;49.410;11.030;2023-05-21T15:59:12;97597.22;;;25.29;54.20
68226;BME280;55045;49.410;11.030;2023-05-21T16:02:15;97577.34;;;25.25;54.06
68226;BME280;55045;49.410;11.030;2023-05-21T16:05:20;97576.88;;;25.21;52.93
68226;BME280;55045;49.410;11.030;2023-05-21T16:08:23;97577.94;;;24.89;58.97
68226;BME280;55045;49.410;11.030;2023-05-21T16:11:26;97580.34;;;24.99;55.43
68226;BME280;55045;49.410;11.030;2023-05-21T16:14:29;97577.78;;;24.83;59.31